Content
SEND FEEDBACK

Daily
Averages
Monthly
Summary
Canada

STE. FOY, QUEBEC


Home > North America > Canada > Quebec
Elevation: 260 feet     Latitude: 46 47N     Longitude: 71 19W

WEATHER
 
SELECT A DAY
Number of Records: 134,924;   Date Range: 12/29/99 - 11/26/14
 
SHARE

PRINT THIS DATA

[ ← Previous Day ]
WEATHER ALMANAC - JULY 8, 2013
[ Next Day → ]
[ °C ]   °F
We're sorry. There is no daily almanac available for Ste. Foy, Quebec on July 8, 2013.
WEATHER BY HOUR - JULY 8, 2013
[ °C ]   °F
Local TimeTemperatureDewpointHumidityBarometerVisibilityWind DirectionWind SpeedGust SpeedPrecipitationEventsConditions
1:00 AM66.0 °F51.4 °F59 %NE (50°)5.8 mph
2:00 AM64.9 °F50.9 °F60 %NE (50°)8.1 mph
3:00 AM64.2 °F49.6 °F59 %NE (50°)9.2 mph
4:00 AM63.5 °F49.5 °F60 %East (80°)8.1 mph
5:00 AM63.0 °F51.1 °F65 %East (80°)8.1 mph
6:00 AM63.1 °F52.0 °F67 %East (80°)6.9 mph
7:00 AM62.8 °F52.0 °F68 %East (80°)8.1 mph
8:00 AM64.0 °F52.0 °F56 %ENE (70°)11.5 mph
8:00 AM63.5 °F52.2 °F67 %ENE (70°)11.5 mph17.3 mph
9:00 AM65.5 °F53.1 °F64 %ENE (60°)12.7 mph19.6 mph
10:00 AM66.9 °F50.4 °F55 %ENE (70°)12.7 mph20.7 mph
11:00 AM68.2 °F49.5 °F51 %East (80°)12.7 mph19.6 mph
12:00 PM70.2 °F47.7 °F45 %East (80°)10.4 mph
1:00 PM71.2 °F48.6 °F45 %East (80°)9.2 mph
2:00 PM73.0 °F49.0 °F32 %East (80°)8.1 mph
2:00 PM72.7 °F49.3 °F44 %East (80°)8.1 mph
3:00 PM72.1 °F49.3 °F44 %ENE (60°)5.8 mph
4:00 PM73.0 °F50.4 °F45 %ENE (60°)4.6 mph
5:00 PM72.7 °F50.2 °F45 %NE (40°)5.8 mph
6:00 PM71.8 °F49.3 °F45 %East (80°)6.9 mph
7:00 PM70.0 °F49.8 °F49 %East (90°)5.8 mph
8:00 PM68.0 °F52.0 °F47 %East (90°)5.8 mph
8:00 PM68.2 °F52.3 °F57 %East (90°)5.8 mph
9:00 PM66.7 °F51.8 °F59 %East (80°)6.9 mph
10:00 PM66.9 °F49.5 °F53 %ENE (60°)5.8 mph
11:00 PM67.1 °F50.4 °F55 %East (80°)4.6 mph
Hourly data recorded from CWJB, located miles away from Ste. Foy, Quebec







STORIES FROM OUR PARTNERS